createdAt,value
2018-09-17T00:01:15.782Z,95762.03
2018-09-17T00:03:44.773Z,95767.20
2018-09-17T00:06:13.966Z,95767.20
2018-09-17T00:08:42.963Z,95773.05
2018-09-17T00:11:12.283Z,95771.80
2018-09-17T00:13:41.679Z,95773.80
2018-09-17T00:16:10.659Z,95768.27
2018-09-17T00:18:39.756Z,95771.42
2018-09-17T00:21:08.872Z,95773.87
2018-09-17T00:23:38.562Z,95778.87
2018-09-17T00:26:07.739Z,95768.77
2018-09-17T00:28:36.779Z,95766.66
2018-09-17T00:31:05.651Z,95767.84
2018-09-17T00:33:34.406Z,95766.36
2018-09-17T00:36:03.326Z,95760.04
2018-09-17T00:38:32.801Z,95766.52
2018-09-17T00:41:01.629Z,95766.52
2018-09-17T00:43:30.974Z,95766.05
2018-09-17T00:45:59.786Z,95762.44
2018-09-17T00:48:29.287Z,95765.00
2018-09-17T00:50:57.999Z,95763.80
2018-09-17T00:53:27.011Z,95767.31
2018-09-17T00:55:56.222Z,95767.98
2018-09-17T00:58:25.291Z,95767.44
2018-09-17T01:00:54.399Z,95767.78
2018-09-17T01:03:23.711Z,95773.92
2018-09-17T01:05:52.483Z,95777.15
2018-09-17T01:08:21.383Z,95772.39
2018-09-17T01:10:50.702Z,95772.36
2018-09-17T01:13:19.535Z,95764.09
2018-09-17T01:15:48.575Z,95768.05
2018-09-17T01:18:17.826Z,95765.32
2018-09-17T01:20:46.857Z,95765.81
2018-09-17T01:23:15.939Z,95764.28
2018-09-17T01:25:45.735Z,95761.58
2018-09-17T01:28:14.554Z,95759.77
2018-09-17T01:30:43.468Z,95770.23
2018-09-17T01:33:12.731Z,95773.36
2018-09-17T01:35:41.551Z,95766.66
2018-09-17T01:38:10.514Z,95766.56
2018-09-17T01:40:40.170Z,95761.34
2018-09-17T01:43:09.253Z,95770.12
2018-09-17T01:45:38.146Z,95764.08
2018-09-17T01:48:07.519Z,95763.90
2018-09-17T01:50:36.443Z,95758.53
2018-09-17T01:53:05.203Z,95756.45
2018-09-17T01:55:34.251Z,95758.56
2018-09-17T01:58:03.342Z,95757.42
2018-09-17T02:00:32.934Z,95758.53
2018-09-17T02:03:02.030Z,95750.63
2018-09-17T02:05:31.708Z,95742.60
2018-09-17T02:08:00.862Z,95746.17
2018-09-17T02:10:30.395Z,95739.94
2018-09-17T02:12:59.302Z,95744.27
2018-09-17T02:15:28.784Z,95745.94
2018-09-17T02:17:57.794Z,95744.55
2018-09-17T02:20:26.740Z,95748.66
2018-09-17T02:22:55.975Z,95749.70
2018-09-17T02:25:25.647Z,95756.23
2018-09-17T02:27:54.663Z,95758.75
2018-09-17T02:30:24.665Z,95750.61
2018-09-17T02:32:53.739Z,95753.56
2018-09-17T02:35:22.543Z,95753.95
2018-09-17T02:37:52.540Z,95752.48
2018-09-17T02:40:21.353Z,95753.20
2018-09-17T02:42:51.252Z,95752.64
2018-09-17T02:45:21.350Z,95751.77
2018-09-17T02:47:50.379Z,95752.28
2018-09-17T02:50:19.995Z,95751.71
2018-09-17T02:52:49.004Z,95754.66
2018-09-17T02:55:17.999Z,95757.59
2018-09-17T02:57:47.231Z,95750.73
2018-09-17T03:00:20.151Z,95753.83
2018-09-17T03:02:50.291Z,95760.61
2018-09-17T03:05:19.463Z,95754.66
2018-09-17T03:07:49.323Z,95758.47
2018-09-17T03:10:18.979Z,95764.59
2018-09-17T03:12:48.244Z,95766.41
2018-09-17T03:15:28.500Z,95772.98
2018-09-17T03:17:58.798Z,95778.37
2018-09-17T03:20:27.875Z,95772.97
2018-09-17T03:22:57.002Z,95772.19
2018-09-17T03:25:25.879Z,95779.08
2018-09-17T03:27:55.682Z,95781.31
2018-09-17T03:30:24.909Z,95780.70
2018-09-17T03:32:53.990Z,95780.09
2018-09-17T03:35:23.291Z,95784.20
2018-09-17T03:37:52.818Z,95776.05
2018-09-17T03:40:21.783Z,95782.77
2018-09-17T03:42:50.475Z,95783.50
2018-09-17T03:45:19.743Z,95780.27
2018-09-17T03:47:48.885Z,95784.31
2018-09-17T03:50:17.855Z,95785.10
2018-09-17T03:52:46.919Z,95783.96
2018-09-17T03:55:15.750Z,95775.64
2018-09-17T03:57:45.670Z,95787.59
2018-09-17T04:00:15.095Z,95795.09
2018-09-17T04:02:44.407Z,95783.03
2018-09-17T04:05:13.691Z,95799.91
2018-09-17T04:07:42.703Z,95802.31
2018-09-17T04:10:11.769Z,95805.36
2018-09-17T04:12:40.670Z,95799.52
2018-09-17T04:15:10.222Z,95800.67
2018-09-17T04:17:39.079Z,95795.81
2018-09-17T04:20:08.263Z,95800.80
2018-09-17T04:22:37.819Z,95808.76
2018-09-17T04:25:06.851Z,95800.06
2018-09-17T04:27:35.871Z,95806.71
2018-09-17T04:30:05.453Z,95807.27
2018-09-17T04:32:35.173Z,95804.18
2018-09-17T04:35:06.119Z,95804.38
2018-09-17T04:37:36.762Z,95810.13
2018-09-17T04:40:06.555Z,95808.95
2018-09-17T04:42:36.685Z,95805.72
2018-09-17T04:45:06.335Z,95813.05
2018-09-17T04:47:36.014Z,95811.81
2018-09-17T04:50:05.224Z,95816.55
2018-09-17T04:52:34.483Z,95813.47
2018-09-17T04:55:03.441Z,95816.83
2018-09-17T04:57:32.927Z,95813.91
2018-09-17T05:00:02.609Z,95810.67
2018-09-17T05:02:31.502Z,95815.16
2018-09-17T05:05:00.634Z,95817.02
2018-09-17T05:07:29.905Z,95815.02
2018-09-17T05:09:59.207Z,95809.61
2018-09-17T05:12:28.631Z,95807.18
2018-09-17T05:14:57.843Z,95817.17
2018-09-17T05:17:27.092Z,95816.97
2018-09-17T05:19:56.009Z,95808.42
2018-09-17T05:22:25.123Z,95807.78
2018-09-17T05:24:54.584Z,95814.09
2018-09-17T05:27:23.591Z,95810.55
2018-09-17T05:29:52.459Z,95804.31
2018-09-17T05:32:21.355Z,95804.62
2018-09-17T05:34:50.688Z,95798.86
2018-09-17T05:37:19.805Z,95808.88
2018-09-17T05:39:48.779Z,95811.22
2018-09-17T05:42:17.895Z,95810.62
2018-09-17T05:44:46.866Z,95810.36
2018-09-17T05:47:15.748Z,95804.80
2018-09-17T05:49:44.593Z,95802.62
2018-09-17T05:52:13.531Z,95807.52
2018-09-17T05:54:42.615Z,95806.78
2018-09-17T05:57:11.658Z,95804.88
2018-09-17T05:59:40.735Z,95806.65
2018-09-17T06:02:09.632Z,95808.61
2018-09-17T06:04:39.620Z,95814.42
2018-09-17T06:07:08.749Z,95812.56
2018-09-17T06:09:37.796Z,95819.88
2018-09-17T06:12:07.016Z,95817.13
2018-09-17T06:14:35.835Z,95836.38
2018-09-17T06:17:05.007Z,95835.97
2018-09-17T06:19:34.308Z,95834.24
2018-09-17T06:22:03.107Z,95825.13
2018-09-17T06:24:32.091Z,95827.73
2018-09-17T06:27:01.180Z,95827.16
2018-09-17T06:29:29.872Z,95836.86
2018-09-17T06:31:58.874Z,95838.16
2018-09-17T06:34:28.009Z,95843.69
2018-09-17T06:39:25.647Z,95841.36
2018-09-17T06:41:54.746Z,95833.88
2018-09-17T06:44:23.740Z,95840.13
2018-09-17T06:46:53.244Z,95838.16
2018-09-17T06:49:22.340Z,95839.67
2018-09-17T06:51:51.347Z,95846.92
2018-09-17T06:54:20.228Z,95844.67
2018-09-17T06:56:49.351Z,95850.13
2018-09-17T06:59:18.502Z,95850.61
2018-09-17T07:01:47.274Z,95855.25
2018-09-17T07:04:15.897Z,95849.75
2018-09-17T07:06:44.686Z,95846.37
2018-09-17T07:09:13.665Z,95850.17
2018-09-17T07:11:42.926Z,95851.59
2018-09-17T07:14:11.625Z,95851.17
2018-09-17T07:16:40.544Z,95849.36
2018-09-17T07:19:09.467Z,95851.52
2018-09-17T07:21:38.274Z,95853.77
2018-09-17T07:24:06.931Z,95851.78
2018-09-17T07:26:35.731Z,95850.09
2018-09-17T07:29:04.899Z,95849.75
2018-09-17T07:31:33.891Z,95846.94
2018-09-17T07:34:02.911Z,95852.13
2018-09-17T07:36:32.210Z,95851.36
2018-09-17T07:39:00.982Z,95853.41
2018-09-17T07:41:30.327Z,95850.64
2018-09-17T07:43:59.405Z,95846.23
2018-09-17T07:46:28.283Z,95855.53
2018-09-17T07:48:57.186Z,95847.70
2018-09-17T07:51:26.182Z,95844.88
2018-09-17T07:53:55.268Z,95845.73
2018-09-17T07:56:24.597Z,95847.86
2018-09-17T07:58:53.585Z,95847.10
2018-09-17T08:01:22.738Z,95845.16
2018-09-17T08:03:51.974Z,95849.17
2018-09-17T08:06:21.163Z,95848.08
2018-09-17T08:08:50.274Z,95844.94
2018-09-17T08:11:20.899Z,95842.48
2018-09-17T08:13:50.099Z,95835.80
2018-09-17T08:16:18.985Z,95835.55
2018-09-17T08:18:48.247Z,95830.80
2018-09-17T08:21:17.294Z,95829.92
2018-09-17T08:23:46.295Z,95831.56
2018-09-17T08:26:15.656Z,95834.34
2018-09-17T08:28:45.302Z,95832.41
2018-09-17T08:31:14.463Z,95821.00
2018-09-17T08:33:43.876Z,95822.66
2018-09-17T08:36:13.027Z,95814.73
2018-09-17T08:38:42.197Z,95811.88
2018-09-17T08:41:11.331Z,95811.02
2018-09-17T08:43:40.247Z,95808.66
2018-09-17T08:46:09.393Z,95808.19
2018-09-17T08:48:38.277Z,95808.89
2018-09-17T08:51:07.468Z,95804.58
2018-09-17T08:53:36.464Z,95804.41
2018-09-17T08:56:27.082Z,95801.50
2018-09-17T08:58:59.571Z,95802.16
2018-09-17T09:01:29.764Z,95793.96
2018-09-17T09:04:03.749Z,95796.99
2018-09-17T09:06:39.098Z,95786.37
2018-09-17T09:09:10.318Z,95788.27
2018-09-17T09:11:44.718Z,95785.47
2018-09-17T09:14:45.292Z,95784.30
2018-09-17T09:17:15.186Z,95773.08
2018-09-17T09:19:44.041Z,95775.59
2018-09-17T09:22:13.139Z,95771.58
2018-09-17T09:24:42.493Z,95770.97
2018-09-17T09:27:11.536Z,95765.23
2018-09-17T09:29:40.587Z,95764.73
2018-09-17T09:32:09.946Z,95762.19
2018-09-17T09:34:38.918Z,95765.29
2018-09-17T09:37:07.907Z,95759.18
2018-09-17T09:39:37.348Z,95758.49
2018-09-17T09:42:06.661Z,95756.92
2018-09-17T09:44:35.510Z,95750.24
2018-09-17T09:47:05.141Z,95752.23
2018-09-17T09:49:34.203Z,95743.70
2018-09-17T09:52:03.426Z,95743.34
2018-09-17T09:54:33.215Z,95740.55
2018-09-17T09:57:02.107Z,95747.30
2018-09-17T09:59:31.067Z,95742.48
2018-09-17T10:02:05.675Z,95744.23
2018-09-17T10:04:35.363Z,95741.86
2018-09-17T10:07:04.521Z,95733.07
2018-09-17T10:09:39.475Z,95731.58
2018-09-17T10:12:14.175Z,95731.10
2018-09-17T10:14:48.475Z,95726.50
2018-09-17T10:17:22.611Z,95735.43
2018-09-17T10:19:52.758Z,95728.95
2018-09-17T10:22:21.759Z,95735.17
2018-09-17T10:24:50.747Z,95723.95
2018-09-17T10:27:19.970Z,95726.78
2018-09-17T10:29:49.288Z,95723.55
2018-09-17T10:32:18.768Z,95723.98
2018-09-17T10:34:47.667Z,95720.50
2018-09-17T10:37:16.454Z,95716.93
2018-09-17T10:39:46.316Z,95711.81
2018-09-17T10:42:15.348Z,95711.23
2018-09-17T10:44:44.149Z,95710.98
2018-09-17T10:47:13.041Z,95703.27
2018-09-17T10:49:42.753Z,95701.70
2018-09-17T10:52:11.949Z,95701.51
2018-09-17T10:54:41.290Z,95704.83
2018-09-17T10:57:10.409Z,95707.34
2018-09-17T10:59:39.335Z,95706.82
2018-09-17T11:02:08.713Z,95697.09
2018-09-17T11:04:37.643Z,95693.95
2018-09-17T11:07:07.139Z,95685.67
2018-09-17T11:09:36.034Z,95691.70
2018-09-17T11:12:05.139Z,95683.69
2018-09-17T11:14:34.027Z,95691.62
2018-09-17T11:17:03.066Z,95679.72
2018-09-17T11:19:31.920Z,95676.80
2018-09-17T11:22:00.794Z,95678.16
2018-09-17T11:24:29.694Z,95668.59
2018-09-17T11:26:58.694Z,95676.73
2018-09-17T11:29:27.581Z,95674.81
2018-09-17T11:31:56.574Z,95672.56
2018-09-17T11:34:26.075Z,95673.92
2018-09-17T11:36:55.600Z,95663.55
2018-09-17T11:39:25.036Z,95672.44
2018-09-17T11:41:53.879Z,95666.05
2018-09-17T11:44:22.725Z,95661.41
2018-09-17T11:46:51.898Z,95655.69
2018-09-17T11:49:20.988Z,95656.75
2018-09-17T11:51:50.091Z,95651.32
2018-09-17T11:54:19.392Z,95656.98
2018-09-17T11:56:48.781Z,95652.75
2018-09-17T11:59:18.439Z,95646.91
2018-09-17T12:01:51.474Z,95645.17
2018-09-17T12:04:25.754Z,95641.78
2018-09-17T12:07:00.861Z,95635.25
2018-09-17T12:09:29.902Z,95637.00
2018-09-17T12:11:59.444Z,95641.65
2018-09-17T12:14:29.191Z,95628.59
2018-09-17T12:16:58.247Z,95619.41
2018-09-17T12:19:27.346Z,95625.25
2018-09-17T12:21:56.710Z,95628.05
2018-09-17T12:24:25.923Z,95624.54
2018-09-17T12:26:55.464Z,95625.91
2018-09-17T12:29:24.671Z,95622.01
2018-09-17T12:31:53.668Z,95621.59
2018-09-17T12:34:22.741Z,95613.77
2018-09-17T12:36:52.167Z,95613.70
2018-09-17T12:39:21.948Z,95609.63
2018-09-17T12:41:51.390Z,95607.09
2018-09-17T12:44:21.436Z,95601.86
2018-09-17T12:46:50.475Z,95599.25
2018-09-17T12:49:19.815Z,95594.30
2018-09-17T12:51:48.626Z,95606.14
2018-09-17T12:54:18.310Z,95599.69
2018-09-17T12:56:47.612Z,95600.98
2018-09-17T12:59:18.142Z,95597.55
2018-09-17T13:01:47.226Z,95589.81
2018-09-17T13:04:16.404Z,95590.92
2018-09-17T13:06:45.955Z,95584.84
2018-09-17T13:09:15.243Z,95589.47
2018-09-17T13:11:45.112Z,95578.56
2018-09-17T13:14:14.200Z,95575.16
2018-09-17T13:16:44.269Z,95573.91
2018-09-17T13:19:14.051Z,95572.76
2018-09-17T13:21:43.573Z,95568.02
2018-09-17T13:24:13.158Z,95558.84
2018-09-17T13:26:42.370Z,95556.96
2018-09-17T13:29:11.661Z,95557.86
2018-09-17T13:31:40.792Z,95566.99
2018-09-17T13:34:09.679Z,95565.02
2018-09-17T13:36:39.146Z,95569.34
2018-09-17T13:39:07.994Z,95564.56
2018-09-17T13:41:37.697Z,95567.76
2018-09-17T13:44:07.280Z,95564.09
2018-09-17T13:46:39.166Z,95556.73
2018-09-17T13:49:09.316Z,95553.17
2018-09-17T13:51:38.397Z,95552.30
2018-09-17T13:54:07.378Z,95550.02
2018-09-17T13:56:36.829Z,95542.36
2018-09-17T13:59:05.942Z,95543.37
2018-09-17T14:01:36.709Z,95530.53
2018-09-17T14:04:06.218Z,95539.24
2018-09-17T14:06:35.436Z,95531.38
2018-09-17T14:09:05.931Z,95523.62
2018-09-17T14:11:35.239Z,95524.38
2018-09-17T14:14:04.388Z,95519.83
2018-09-17T14:16:33.716Z,95521.59
2018-09-17T14:19:03.089Z,95526.33
2018-09-17T14:21:32.348Z,95523.45
2018-09-17T14:24:01.470Z,95526.47
2018-09-17T14:26:32.721Z,95521.67
2018-09-17T14:29:02.838Z,95533.48
2018-09-17T14:31:37.580Z,95524.02
2018-09-17T14:34:07.987Z,95530.32
2018-09-17T14:36:37.814Z,95539.69
2018-09-17T14:39:08.827Z,95530.92
2018-09-17T14:41:37.855Z,95529.33
2018-09-17T14:44:08.091Z,95526.52
2018-09-17T14:46:38.007Z,95528.03
2018-09-17T14:49:07.028Z,95527.16
2018-09-17T14:51:36.785Z,95528.78
2018-09-17T14:54:05.943Z,95520.81
2018-09-17T14:56:35.840Z,95515.08
2018-09-17T14:59:05.380Z,95526.54
2018-09-17T15:01:34.660Z,95526.65
2018-09-17T15:04:03.709Z,95526.03
2018-09-17T15:06:32.697Z,95527.65
2018-09-17T15:09:01.925Z,95519.13
2018-09-17T15:11:31.195Z,95523.44
2018-09-17T15:14:00.538Z,95512.44
2018-09-17T15:16:30.519Z,95510.27
2018-09-17T15:18:59.507Z,95518.27
2018-09-17T15:21:29.115Z,95507.92
2018-09-17T15:23:59.069Z,95521.75
2018-09-17T15:26:28.348Z,95520.88
2018-09-17T15:28:56.999Z,95518.49
2018-09-17T15:31:26.440Z,95521.08
2018-09-17T15:33:55.325Z,95535.22
2018-09-17T15:36:24.418Z,95531.33
2018-09-17T15:38:53.777Z,95537.19
2018-09-17T15:41:23.066Z,95537.74
2018-09-17T15:43:51.894Z,95543.76
2018-09-17T15:46:21.135Z,95546.97
2018-09-17T15:48:52.050Z,95536.73
2018-09-17T15:51:21.970Z,95542.22
2018-09-17T15:53:50.962Z,95548.14
2018-09-17T15:56:20.960Z,95547.91
2018-09-17T15:58:49.968Z,95555.22
2018-09-17T16:01:19.572Z,95547.41
2018-09-17T16:03:48.769Z,95560.53
2018-09-17T16:06:18.717Z,95546.34
2018-09-17T16:08:47.722Z,95549.87
2018-09-17T16:11:16.804Z,95550.95
2018-09-17T16:13:46.224Z,95547.33
2018-09-17T16:16:15.290Z,95549.49
2018-09-17T16:18:44.179Z,95551.51
2018-09-17T16:21:13.390Z,95553.71
2018-09-17T16:23:42.483Z,95548.54
2018-09-17T16:26:11.467Z,95546.56
2018-09-17T16:28:40.582Z,95544.68
2018-09-17T16:31:10.159Z,95543.25
2018-09-17T16:33:39.347Z,95536.23
2018-09-17T16:36:08.407Z,95540.56
2018-09-17T16:38:37.403Z,95550.87
2018-09-17T16:41:06.764Z,95547.50
2018-09-17T16:43:35.899Z,95551.49
2018-09-17T16:46:05.274Z,95555.64
2018-09-17T16:48:34.348Z,95553.53
2018-09-17T16:51:03.928Z,95548.06
2018-09-17T16:53:32.921Z,95554.97
2018-09-17T16:56:01.795Z,95549.88
2018-09-17T16:58:31.098Z,95564.45
2018-09-17T17:01:00.053Z,95565.28
2018-09-17T17:03:28.967Z,95557.43
2018-09-17T17:06:00.292Z,95555.86
2018-09-17T17:08:29.191Z,95563.14
2018-09-17T17:10:58.765Z,95560.22
2018-09-17T17:13:28.200Z,95565.17
2018-09-17T17:15:57.683Z,95562.14
2018-09-17T17:18:27.308Z,95574.23
2018-09-17T17:20:56.489Z,95571.19
2018-09-17T17:23:25.406Z,95563.64
2018-09-17T17:25:54.501Z,95565.23
2018-09-17T17:28:23.804Z,95569.95
2018-09-17T17:30:53.145Z,95565.77
2018-09-17T17:33:22.329Z,95564.28
2018-09-17T17:35:52.359Z,95566.09
2018-09-17T17:38:21.542Z,95563.80
2018-09-17T17:40:51.014Z,95565.89
2018-09-17T17:43:19.974Z,95572.52
2018-09-17T17:45:48.934Z,95571.63
2018-09-17T17:48:18.218Z,95573.95
2018-09-17T17:50:47.442Z,95580.95
2018-09-17T17:53:16.599Z,95581.73
2018-09-17T17:55:46.549Z,95576.18
2018-09-17T17:58:16.322Z,95582.16
2018-09-17T18:00:46.042Z,95578.74
2018-09-17T18:03:14.824Z,95582.95
2018-09-17T18:05:44.259Z,95579.70
2018-09-17T18:08:13.139Z,95592.05
2018-09-17T18:10:41.911Z,95594.58
2018-09-17T18:13:11.396Z,95607.55
2018-09-17T18:15:41.049Z,95589.47
2018-09-17T18:18:10.225Z,95598.70
2018-09-17T18:20:39.406Z,95592.75
2018-09-17T18:23:08.494Z,95594.52
2018-09-17T18:25:37.591Z,95591.71
2018-09-17T18:28:07.075Z,95599.06
2018-09-17T18:30:35.865Z,95599.86
2018-09-17T18:33:04.657Z,95601.53
2018-09-17T18:35:33.919Z,95602.53
2018-09-17T18:38:03.760Z,95603.70
2018-09-17T18:40:33.018Z,95599.02
2018-09-17T18:43:01.844Z,95607.38
2018-09-17T18:45:30.937Z,95608.39
2018-09-17T18:47:59.858Z,95604.64
2018-09-17T18:50:29.034Z,95605.82
2018-09-17T18:52:58.290Z,95596.06
2018-09-17T18:55:27.281Z,95600.48
2018-09-17T18:57:56.123Z,95599.09
2018-09-17T19:00:25.604Z,95591.16
2018-09-17T19:02:55.193Z,95588.75
2018-09-17T19:05:24.087Z,95595.22
2018-09-17T19:07:53.051Z,95594.61
2018-09-17T19:10:22.192Z,95595.48
2018-09-17T19:12:51.415Z,95591.83
2018-09-17T19:15:25.310Z,95602.48
2018-09-17T19:17:54.727Z,95600.19
2018-09-17T19:20:24.105Z,95606.16
2018-09-17T19:22:58.151Z,95602.87
2018-09-17T19:25:27.191Z,95604.89
2018-09-17T19:28:01.765Z,95613.27
2018-09-17T19:30:30.707Z,95610.24
2018-09-17T19:32:59.827Z,95598.98
2018-09-17T19:35:31.130Z,95611.13
2018-09-17T19:38:05.235Z,95614.29
2018-09-17T19:40:34.137Z,95609.63
2018-09-17T19:43:04.539Z,95606.79
2018-09-17T19:45:38.979Z,95605.92
2018-09-17T19:48:07.950Z,95619.08
2018-09-17T19:50:42.196Z,95614.63
2018-09-17T19:53:11.187Z,95608.45
2018-09-17T19:55:40.279Z,95618.31
2018-09-17T19:58:14.765Z,95613.00
2018-09-17T20:00:43.609Z,95612.38
2018-09-17T20:03:12.508Z,95613.13
2018-09-17T20:05:46.777Z,95608.20
2018-09-17T20:08:15.759Z,95614.00
2018-09-17T20:10:44.552Z,95622.25
2018-09-17T20:13:13.984Z,95615.77
2018-09-17T20:15:42.827Z,95623.00
2018-09-17T20:18:12.344Z,95626.30
2018-09-17T20:20:41.367Z,95631.34
2018-09-17T20:23:10.481Z,95631.34
2018-09-17T20:25:39.642Z,95646.16
2018-09-17T20:28:09.060Z,95639.58
2018-09-17T20:30:37.705Z,95640.97
2018-09-17T20:33:07.047Z,95648.05
2018-09-17T20:35:36.220Z,95643.84
2018-09-17T20:38:05.743Z,95651.80
2018-09-17T20:40:34.723Z,95656.95
2018-09-17T20:43:04.109Z,95650.62
2018-09-17T20:45:33.184Z,95642.20
2018-09-17T20:48:02.009Z,95647.00
2018-09-17T20:50:31.329Z,95650.03
2018-09-17T20:53:00.283Z,95649.75
2018-09-17T20:55:29.129Z,95646.55
2018-09-17T20:57:58.327Z,95652.98
2018-09-17T21:00:27.702Z,95651.34
2018-09-17T21:02:56.367Z,95650.95
2018-09-17T21:05:25.427Z,95645.98
2018-09-17T21:07:55.075Z,95649.23
2018-09-17T21:10:24.700Z,95643.54
2018-09-17T21:12:53.854Z,95636.44
2018-09-17T21:15:23.928Z,95643.48
2018-09-17T21:17:53.111Z,95647.16
2018-09-17T21:20:22.147Z,95646.54
2018-09-17T21:22:51.738Z,95649.55
2018-09-17T21:25:20.668Z,95657.75
2018-09-17T21:27:49.942Z,95651.29
2018-09-17T21:30:18.718Z,95656.84
2018-09-17T21:32:47.616Z,95657.59
2018-09-17T21:35:17.176Z,95652.89
2018-09-17T21:37:46.199Z,95662.85
2018-09-17T21:40:15.291Z,95653.86
2018-09-17T21:42:44.420Z,95662.34
2018-09-17T21:45:13.711Z,95664.73
2018-09-17T21:47:42.681Z,95660.19
2018-09-17T21:50:12.309Z,95660.95
2018-09-17T21:52:41.094Z,95657.78
2018-09-17T21:55:09.899Z,95664.81
2018-09-17T21:57:39.008Z,95661.25
2018-09-17T22:00:09.922Z,95660.11
2018-09-17T22:02:38.995Z,95656.46
2018-09-17T22:05:08.679Z,95663.27
2018-09-17T22:07:37.522Z,95668.67
2018-09-17T22:10:06.542Z,95667.59
2018-09-17T22:12:35.451Z,95670.23
2018-09-17T22:15:05.548Z,95670.97
2018-09-17T22:17:35.242Z,95666.41
2018-09-17T22:20:04.975Z,95662.73
2018-09-17T22:22:34.160Z,95662.59
2018-09-17T22:25:03.686Z,95658.26
2018-09-17T22:27:32.931Z,95659.90
2018-09-17T22:30:01.752Z,95665.56
2018-09-17T22:32:30.954Z,95663.76
2018-09-17T22:35:00.200Z,95665.03
2018-09-17T22:37:29.251Z,95658.09
2018-09-17T22:39:58.327Z,95651.77
2018-09-17T22:42:28.384Z,95655.54
2018-09-17T22:44:57.560Z,95656.42
2018-09-17T22:47:26.735Z,95656.56
2018-09-17T22:49:55.993Z,95662.37
2018-09-17T22:52:24.849Z,95660.50
2018-09-17T22:54:54.227Z,95662.73
2018-09-17T22:57:23.183Z,95662.20
2018-09-17T22:59:52.546Z,95651.95
2018-09-17T23:02:21.441Z,95659.70
2018-09-17T23:04:51.374Z,95665.00
2018-09-17T23:07:20.223Z,95668.62
2018-09-17T23:09:49.018Z,95665.45
2018-09-17T23:12:18.214Z,95669.95
2018-09-17T23:14:46.991Z,95655.53
2018-09-17T23:17:15.892Z,95664.45
2018-09-17T23:19:45.338Z,95664.67
2018-09-17T23:22:14.529Z,95667.92
2018-09-17T23:24:43.677Z,95670.36
2018-09-17T23:27:12.655Z,95669.20
2018-09-17T23:29:41.608Z,95668.73
2018-09-17T23:32:11.038Z,95667.89
2018-09-17T23:34:40.621Z,95669.61
2018-09-17T23:37:09.431Z,95664.42
2018-09-17T23:39:39.124Z,95667.97
2018-09-17T23:42:08.339Z,95657.09
2018-09-17T23:44:37.628Z,95657.23
2018-09-17T23:47:06.833Z,95653.39
2018-09-17T23:49:36.041Z,95652.62
2018-09-17T23:52:05.323Z,95652.55
2018-09-17T23:54:34.531Z,95652.81
2018-09-17T23:57:03.979Z,95654.67
2018-09-17T23:59:32.711Z,95644.22
